sensor_id;sensor_type;location;lat;lon;timestamp;pressure;altitude;pressure_sealevel;temperature;humidity
18813;BME280;9534;51.140;6.296;2023-04-26T00:00:07;100887.69;;;2.16;100.00
18813;BME280;9534;51.140;6.296;2023-04-26T00:04:13;100886.00;;;2.05;100.00
18813;BME280;9534;51.140;6.296;2023-04-26T00:08:16;100887.31;;;2.01;100.00
18813;BME280;9534;51.140;6.296;2023-04-26T00:12:19;100888.81;;;1.86;100.00
18813;BME280;9534;51.140;6.296;2023-04-26T00:16:23;100888.09;;;1.84;100.00
18813;BME280;9534;51.140;6.296;2023-04-26T00:20:27;100890.09;;;1.82;100.00
18813;BME280;9534;51.140;6.296;2023-04-26T00:24:30;100889.06;;;1.93;100.00
18813;BME280;9534;51.140;6.296;2023-04-26T00:28:33;100890.59;;;1.95;100.00
18813;BME280;9534;51.140;6.296;2023-04-26T00:32:36;100892.91;;;1.90;100.00
18813;BME280;9534;51.140;6.296;2023-04-26T00:36:42;100880.34;;;1.72;100.00
18813;BME280;9534;51.140;6.296;2023-04-26T00:40:45;100886.22;;;1.67;100.00
18813;BME280;9534;51.140;6.296;2023-04-26T00:44:48;100881.63;;;1.77;100.00
18813;BME280;9534;51.140;6.296;2023-04-26T00:48:55;100891.31;;;1.61;100.00
18813;BME280;9534;51.140;6.296;2023-04-26T00:53:00;100873.50;;;1.50;100.00
18813;BME280;9534;51.140;6.296;2023-04-26T00:57:04;100879.47;;;1.44;100.00
18813;BME280;9534;51.140;6.296;2023-04-26T01:01:07;100876.06;;;1.42;100.00
18813;BME280;9534;51.140;6.296;2023-04-26T01:05:10;100873.78;;;1.47;100.00
18813;BME280;9534;51.140;6.296;2023-04-26T01:09:15;100882.34;;;1.33;100.00
18813;BME280;9534;51.140;6.296;2023-04-26T01:13:19;100880.34;;;1.35;100.00
18813;BME280;9534;51.140;6.296;2023-04-26T01:17:22;100892.53;;;1.39;100.00
18813;BME280;9534;51.140;6.296;2023-04-26T01:21:26;100887.72;;;1.33;100.00
18813;BME280;9534;51.140;6.296;2023-04-26T01:25:31;100895.38;;;1.38;100.00
18813;BME280;9534;51.140;6.296;2023-04-26T01:29:35;100895.81;;;1.33;100.00
18813;BME280;9534;51.140;6.296;2023-04-26T01:33:38;100899.38;;;1.34;100.00
18813;BME280;9534;51.140;6.296;2023-04-26T01:37:41;100894.84;;;1.16;100.00
18813;BME280;9534;51.140;6.296;2023-04-26T01:41:45;100890.59;;;1.04;100.00
18813;BME280;9534;51.140;6.296;2023-04-26T01:45:48;100883.81;;;0.90;100.00
18813;BME280;9534;51.140;6.296;2023-04-26T01:50:04;100888.94;;;0.84;100.00
18813;BME280;9534;51.140;6.296;2023-04-26T01:54:07;100884.41;;;0.84;100.00
18813;BME280;9534;51.140;6.296;2023-04-26T01:58:12;100881.97;;;1.00;100.00
18813;BME280;9534;51.140;6.296;2023-04-26T02:02:15;100877.13;;;1.04;100.00
18813;BME280;9534;51.140;6.296;2023-04-26T02:06:18;100881.00;;;0.73;100.00
18813;BME280;9534;51.140;6.296;2023-04-26T02:10:21;100883.41;;;0.66;100.00
18813;BME280;9534;51.140;6.296;2023-04-26T02:14:26;100885.53;;;0.63;100.00
18813;BME280;9534;51.140;6.296;2023-04-26T02:18:29;100884.69;;;0.72;100.00
18813;BME280;9534;51.140;6.296;2023-04-26T02:22:32;100884.69;;;0.72;100.00
18813;BME280;9534;51.140;6.296;2023-04-26T02:26:34;100885.56;;;0.82;100.00
18813;BME280;9534;51.140;6.296;2023-04-26T02:30:39;100878.31;;;0.73;100.00
18813;BME280;9534;51.140;6.296;2023-04-26T02:34:43;100883.00;;;0.90;100.00
18813;BME280;9534;51.140;6.296;2023-04-26T02:38:46;100886.69;;;0.70;100.00
18813;BME280;9534;51.140;6.296;2023-04-26T02:42:49;100886.38;;;0.54;100.00
18813;BME280;9534;51.140;6.296;2023-04-26T02:46:53;100884.13;;;0.59;100.00
18813;BME280;9534;51.140;6.296;2023-04-26T02:50:56;100872.50;;;0.39;100.00
18813;BME280;9534;51.140;6.296;2023-04-26T02:54:59;100886.91;;;0.29;100.00
18813;BME280;9534;51.140;6.296;2023-04-26T02:59:02;100878.59;;;0.41;100.00
18813;BME280;9534;51.140;6.296;2023-04-26T03:03:07;100877.88;;;0.49;100.00
18813;BME280;9534;51.140;6.296;2023-04-26T03:07:10;100871.91;;;0.26;100.00
18813;BME280;9534;51.140;6.296;2023-04-26T03:11:13;100874.88;;;0.33;100.00
18813;BME280;9534;51.140;6.296;2023-04-26T03:15:16;100869.94;;;0.28;100.00
18813;BME280;9534;51.140;6.296;2023-04-26T03:19:20;100858.84;;;0.22;100.00
18813;BME280;9534;51.140;6.296;2023-04-26T03:23:23;100853.59;;;0.02;100.00
18813;BME280;9534;51.140;6.296;2023-04-26T03:27:28;100865.38;;;0.29;100.00
18813;BME280;9534;51.140;6.296;2023-04-26T03:31:31;100857.44;;;0.18;100.00
18813;BME280;9534;51.140;6.296;2023-04-26T03:35:36;100853.75;;;0.00;100.00
18813;BME280;9534;51.140;6.296;2023-04-26T03:39:39;100848.31;;;-0.09;100.00
18813;BME280;9534;51.140;6.296;2023-04-26T03:43:43;100851.50;;;0.05;100.00
18813;BME280;9534;51.140;6.296;2023-04-26T03:47:46;100841.28;;;0.18;100.00
18813;BME280;9534;51.140;6.296;2023-04-26T03:51:51;100848.94;;;0.04;100.00
18813;BME280;9534;51.140;6.296;2023-04-26T03:55:54;100848.66;;;-0.03;100.00
18813;BME280;9534;51.140;6.296;2023-04-26T03:59:57;100855.50;;;0.29;100.00
18813;BME280;9534;51.140;6.296;2023-04-26T04:04:00;100849.94;;;0.31;100.00
18813;BME280;9534;51.140;6.296;2023-04-26T04:08:05;100849.94;;;0.21;100.00
18813;BME280;9534;51.140;6.296;2023-04-26T04:12:08;100858.00;;;0.12;100.00
18813;BME280;9534;51.140;6.296;2023-04-26T04:16:12;100867.03;;;-0.08;100.00
18813;BME280;9534;51.140;6.296;2023-04-26T04:20:15;100858.25;;;-0.10;100.00
18813;BME280;9534;51.140;6.296;2023-04-26T04:24:21;100861.78;;;-0.09;100.00
18813;BME280;9534;51.140;6.296;2023-04-26T04:28:25;100861.38;;;0.05;100.00
18813;BME280;9534;51.140;6.296;2023-04-26T04:32:29;100872.63;;;0.38;100.00
18813;BME280;9534;51.140;6.296;2023-04-26T04:36:35;100875.75;;;0.43;100.00
18813;BME280;9534;51.140;6.296;2023-04-26T04:40:43;100868.81;;;0.50;100.00
18813;BME280;9534;51.140;6.296;2023-04-26T04:44:46;100874.47;;;0.47;100.00
18813;BME280;9534;51.140;6.296;2023-04-26T04:48:51;100875.34;;;0.47;100.00
18813;BME280;9534;51.140;6.296;2023-04-26T04:52:55;100884.25;;;0.76;100.00
18813;BME280;9534;51.140;6.296;2023-04-26T04:57:00;100879.59;;;0.88;100.00
18813;BME280;9534;51.140;6.296;2023-04-26T05:01:04;100893.16;;;0.96;100.00
18813;BME280;9534;51.140;6.296;2023-04-26T05:05:29;100892.72;;;1.19;100.00
18813;BME280;9534;51.140;6.296;2023-04-26T05:09:32;100899.38;;;1.34;100.00
18813;BME280;9534;51.140;6.296;2023-04-26T05:13:37;100901.75;;;1.46;100.00
18813;BME280;9534;51.140;6.296;2023-04-26T05:17:41;100895.03;;;1.60;100.00
18813;BME280;9534;51.140;6.296;2023-04-26T05:21:50;100901.81;;;1.73;100.00
18813;BME280;9534;51.140;6.296;2023-04-26T05:25:54;100902.59;;;1.83;100.00
18813;BME280;9534;51.140;6.296;2023-04-26T05:30:25;100906.38;;;2.00;100.00
18813;BME280;9534;51.140;6.296;2023-04-26T05:34:49;100908.81;;;2.20;100.00
18813;BME280;9534;51.140;6.296;2023-04-26T05:38:52;100914.81;;;2.41;100.00
18813;BME280;9534;51.140;6.296;2023-04-26T05:42:55;100919.81;;;2.53;100.00
18813;BME280;9534;51.140;6.296;2023-04-26T05:47:01;100924.31;;;2.62;100.00
18813;BME280;9534;51.140;6.296;2023-04-26T05:51:04;100921.91;;;2.77;100.00
18813;BME280;9534;51.140;6.296;2023-04-26T05:55:08;100926.25;;;3.05;100.00
18813;BME280;9534;51.140;6.296;2023-04-26T05:59:11;100919.66;;;3.25;100.00
18813;BME280;9534;51.140;6.296;2023-04-26T06:03:16;100928.44;;;3.44;100.00
18813;BME280;9534;51.140;6.296;2023-04-26T06:07:20;100928.75;;;3.67;100.00
18813;BME280;9534;51.140;6.296;2023-04-26T06:11:23;100924.72;;;3.70;100.00
18813;BME280;9534;51.140;6.296;2023-04-26T06:15:27;100927.31;;;4.05;100.00
18813;BME280;9534;51.140;6.296;2023-04-26T06:19:34;100928.41;;;4.20;100.00
18813;BME280;9534;51.140;6.296;2023-04-26T06:23:37;100918.63;;;4.43;100.00
18813;BME280;9534;51.140;6.296;2023-04-26T06:27:40;100916.00;;;4.67;100.00
18813;BME280;9534;51.140;6.296;2023-04-26T06:31:43;100913.84;;;4.94;100.00
18813;BME280;9534;51.140;6.296;2023-04-26T06:35:48;100900.50;;;5.17;100.00
18813;BME280;9534;51.140;6.296;2023-04-26T06:39:52;100891.31;;;5.42;100.00
18813;BME280;9534;51.140;6.296;2023-04-26T06:43:55;100885.88;;;5.42;100.00
18813;BME280;9534;51.140;6.296;2023-04-26T06:48:04;100872.63;;;5.63;100.00
18813;BME280;9534;51.140;6.296;2023-04-26T06:52:09;100872.69;;;6.09;100.00
18813;BME280;9534;51.140;6.296;2023-04-26T06:56:12;100862.88;;;6.30;100.00
18813;BME280;9534;51.140;6.296;2023-04-26T07:00:16;100866.22;;;6.71;100.00
18813;BME280;9534;51.140;6.296;2023-04-26T07:04:19;100865.25;;;6.64;100.00
18813;BME280;9534;51.140;6.296;2023-04-26T07:08:24;100881.81;;;6.99;100.00
18813;BME280;9534;51.140;6.296;2023-04-26T07:12:27;100883.28;;;7.10;100.00
18813;BME280;9534;51.140;6.296;2023-04-26T07:16:29;100877.75;;;7.40;100.00
18813;BME280;9534;51.140;6.296;2023-04-26T07:20:33;100891.72;;;7.37;100.00
18813;BME280;9534;51.140;6.296;2023-04-26T07:24:38;100878.13;;;7.37;100.00
18813;BME280;9534;51.140;6.296;2023-04-26T07:28:40;100892.94;;;7.12;100.00
18813;BME280;9534;51.140;6.296;2023-04-26T07:32:44;100893.00;;;7.63;100.00
18813;BME280;9534;51.140;6.296;2023-04-26T07:36:47;100887.03;;;7.09;100.00
18813;BME280;9534;51.140;6.296;2023-04-26T07:40:51;100876.41;;;7.73;100.00
18813;BME280;9534;51.140;6.296;2023-04-26T07:44:54;100880.34;;;7.85;100.00
18813;BME280;9534;51.140;6.296;2023-04-26T07:48:57;100871.88;;;7.80;100.00
18813;BME280;9534;51.140;6.296;2023-04-26T07:53:00;100880.19;;;8.15;100.00
18813;BME280;9534;51.140;6.296;2023-04-26T07:57:04;100873.00;;;8.00;100.00
18813;BME280;9534;51.140;6.296;2023-04-26T08:01:07;100871.50;;;8.12;100.00
18813;BME280;9534;51.140;6.296;2023-04-26T08:05:12;100869.72;;;8.33;100.00
18813;BME280;9534;51.140;6.296;2023-04-26T08:09:16;100876.94;;;7.83;100.00
18813;BME280;9534;51.140;6.296;2023-04-26T08:13:20;100878.66;;;8.42;100.00
18813;BME280;9534;51.140;6.296;2023-04-26T08:17:23;100880.75;;;8.40;100.00
18813;BME280;9534;51.140;6.296;2023-04-26T08:21:26;100868.47;;;8.85;100.00
18813;BME280;9534;51.140;6.296;2023-04-26T08:25:29;100872.06;;;8.86;100.00
18813;BME280;9534;51.140;6.296;2023-04-26T08:29:36;100879.03;;;9.58;100.00
18813;BME280;9534;51.140;6.296;2023-04-26T08:33:39;100891.75;;;9.02;100.00
18813;BME280;9534;51.140;6.296;2023-04-26T08:37:43;100892.53;;;9.17;100.00
18813;BME280;9534;51.140;6.296;2023-04-26T08:41:48;100903.22;;;9.33;100.00
18813;BME280;9534;51.140;6.296;2023-04-26T08:45:53;100888.53;;;9.89;100.00
18813;BME280;9534;51.140;6.296;2023-04-26T08:49:56;100895.28;;;9.93;100.00
18813;BME280;9534;51.140;6.296;2023-04-26T08:54:00;100907.53;;;9.70;100.00
18813;BME280;9534;51.140;6.296;2023-04-26T08:58:05;100904.66;;;9.78;100.00
18813;BME280;9534;51.140;6.296;2023-04-26T09:02:13;100902.53;;;9.52;100.00
18813;BME280;9534;51.140;6.296;2023-04-26T09:06:18;100893.50;;;9.79;100.00
18813;BME280;9534;51.140;6.296;2023-04-26T09:10:22;100890.91;;;9.98;100.00
18813;BME280;9534;51.140;6.296;2023-04-26T09:14:26;100885.97;;;9.12;100.00
18813;BME280;9534;51.140;6.296;2023-04-26T09:18:30;100880.81;;;10.33;100.00
18813;BME280;9534;51.140;6.296;2023-04-26T09:22:35;100881.38;;;11.54;100.00
18813;BME280;9534;51.140;6.296;2023-04-26T09:26:39;100892.09;;;11.36;100.00
18813;BME280;9534;51.140;6.296;2023-04-26T09:30:42;100889.91;;;10.93;100.00
18813;BME280;9534;51.140;6.296;2023-04-26T09:34:47;100887.06;;;11.92;100.00
18813;BME280;9534;51.140;6.296;2023-04-26T09:38:49;100874.41;;;11.32;100.00
18813;BME280;9534;51.140;6.296;2023-04-26T09:42:56;100882.84;;;11.96;100.00
18813;BME280;9534;51.140;6.296;2023-04-26T09:47:00;100878.22;;;10.12;100.00
18813;BME280;9534;51.140;6.296;2023-04-26T09:51:09;100885.66;;;9.42;100.00
18813;BME280;9534;51.140;6.296;2023-04-26T09:55:13;100880.22;;;10.03;100.00
18813;BME280;9534;51.140;6.296;2023-04-26T09:59:43;100881.69;;;10.93;100.00
18813;BME280;9534;51.140;6.296;2023-04-26T10:03:46;100880.19;;;12.96;100.00
18813;BME280;9534;51.140;6.296;2023-04-26T10:07:51;100880.81;;;12.48;100.00
18813;BME280;9534;51.140;6.296;2023-04-26T10:11:54;100879.44;;;11.16;100.00
18813;BME280;9534;51.140;6.296;2023-04-26T10:15:57;100879.09;;;10.66;100.00
18813;BME280;9534;51.140;6.296;2023-04-26T10:20:01;100868.47;;;12.13;100.00
18813;BME280;9534;51.140;6.296;2023-04-26T10:24:08;100866.81;;;11.60;100.00
18813;BME280;9534;51.140;6.296;2023-04-26T10:28:12;100867.47;;;11.88;100.00
18813;BME280;9534;51.140;6.296;2023-04-26T10:32:14;100880.28;;;12.20;100.00
18813;BME280;9534;51.140;6.296;2023-04-26T10:36:19;100878.59;;;11.28;100.00
18813;BME280;9534;51.140;6.296;2023-04-26T10:40:25;100870.97;;;10.92;100.00
18813;BME280;9534;51.140;6.296;2023-04-26T10:44:38;100862.75;;;10.98;100.00
18813;BME280;9534;51.140;6.296;2023-04-26T10:48:42;100853.56;;;11.70;100.00
18813;BME280;9534;51.140;6.296;2023-04-26T10:53:06;100860.81;;;10.79;100.00
18813;BME280;9534;51.140;6.296;2023-04-26T10:57:10;100859.88;;;11.51;100.00
18813;BME280;9534;51.140;6.296;2023-04-26T11:01:14;100858.81;;;10.54;100.00
18813;BME280;9534;51.140;6.296;2023-04-26T11:09:51;100860.88;;;11.05;100.00
18813;BME280;9534;51.140;6.296;2023-04-26T11:13:55;100850.78;;;11.64;100.00
18813;BME280;9534;51.140;6.296;2023-04-26T11:18:00;100856.00;;;10.94;100.00
18813;BME280;9534;51.140;6.296;2023-04-26T11:22:05;100839.31;;;12.32;100.00
18813;BME280;9534;51.140;6.296;2023-04-26T11:26:08;100837.09;;;12.53;100.00
18813;BME280;9534;51.140;6.296;2023-04-26T11:30:13;100831.31;;;13.11;100.00
18813;BME280;9534;51.140;6.296;2023-04-26T11:34:16;100840.16;;;13.13;100.00
18813;BME280;9534;51.140;6.296;2023-04-26T11:38:20;100830.03;;;12.26;100.00
18813;BME280;9534;51.140;6.296;2023-04-26T11:42:23;100837.31;;;11.88;100.00
18813;BME280;9534;51.140;6.296;2023-04-26T11:46:28;100829.72;;;12.47;100.00
18813;BME280;9534;51.140;6.296;2023-04-26T11:50:32;100838.78;;;12.54;100.00
18813;BME280;9534;51.140;6.296;2023-04-26T11:54:36;100837.63;;;13.12;100.00
18813;BME280;9534;51.140;6.296;2023-04-26T11:58:39;100839.31;;;12.25;100.00
18813;BME280;9534;51.140;6.296;2023-04-26T12:02:46;100832.19;;;12.05;100.00
18813;BME280;9534;51.140;6.296;2023-04-26T12:06:50;100831.81;;;11.36;100.00
18813;BME280;9534;51.140;6.296;2023-04-26T12:10:53;100835.31;;;12.21;100.00
18813;BME280;9534;51.140;6.296;2023-04-26T12:14:57;100836.25;;;11.50;100.00
18813;BME280;9534;51.140;6.296;2023-04-26T12:19:03;100840.13;;;12.32;100.00
18813;BME280;9534;51.140;6.296;2023-04-26T12:23:07;100828.72;;;12.79;100.00
18813;BME280;9534;51.140;6.296;2023-04-26T12:27:18;100826.06;;;13.58;100.00
18813;BME280;9534;51.140;6.296;2023-04-26T12:31:21;100823.97;;;13.96;100.00
18813;BME280;9534;51.140;6.296;2023-04-26T12:35:26;100825.94;;;13.47;100.00
18813;BME280;9534;51.140;6.296;2023-04-26T12:39:29;100825.56;;;13.44;100.00
18813;BME280;9534;51.140;6.296;2023-04-26T12:43:32;100825.91;;;13.54;100.00
18813;BME280;9534;51.140;6.296;2023-04-26T12:47:35;100837.59;;;14.81;100.00
18813;BME280;9534;51.140;6.296;2023-04-26T12:51:39;100839.19;;;12.95;100.00
18813;BME280;9534;51.140;6.296;2023-04-26T12:55:42;100837.91;;;12.60;100.00
18813;BME280;9534;51.140;6.296;2023-04-26T12:59:45;100832.16;;;12.11;100.00
18813;BME280;9534;51.140;6.296;2023-04-26T13:03:49;100839.94;;;13.15;100.00
18813;BME280;9534;51.140;6.296;2023-04-26T13:07:53;100827.38;;;12.57;100.00
18813;BME280;9534;51.140;6.296;2023-04-26T13:11:56;100825.16;;;13.40;100.00
18813;BME280;9534;51.140;6.296;2023-04-26T13:15:59;100832.78;;;15.47;100.00
18813;BME280;9534;51.140;6.296;2023-04-26T13:20:05;100817.13;;;14.23;98.03
18813;BME280;9534;51.140;6.296;2023-04-26T13:24:10;100823.94;;;13.78;100.00
18813;BME280;9534;51.140;6.296;2023-04-26T13:28:13;100824.13;;;13.83;100.00
18813;BME280;9534;51.140;6.296;2023-04-26T13:32:17;100816.28;;;14.23;100.00
18813;BME280;9534;51.140;6.296;2023-04-26T13:36:20;100820.03;;;15.23;91.88
18813;BME280;9534;51.140;6.296;2023-04-26T13:40:24;100815.06;;;15.13;90.96
18813;BME280;9534;51.140;6.296;2023-04-26T13:44:27;100813.53;;;16.66;84.46
18813;BME280;9534;51.140;6.296;2023-04-26T13:48:30;100825.41;;;16.78;84.71
18813;BME280;9534;51.140;6.296;2023-04-26T13:52:33;100832.69;;;13.93;100.00
18813;BME280;9534;51.140;6.296;2023-04-26T13:56:38;100821.06;;;12.87;100.00
18813;BME280;9534;51.140;6.296;2023-04-26T14:00:41;100822.88;;;13.06;100.00
18813;BME280;9534;51.140;6.296;2023-04-26T14:04:44;100821.25;;;12.92;100.00
18813;BME280;9534;51.140;6.296;2023-04-26T14:08:47;100817.81;;;13.58;100.00
18813;BME280;9534;51.140;6.296;2023-04-26T14:12:51;100810.78;;;13.14;96.29
18813;BME280;9534;51.140;6.296;2023-04-26T14:16:55;100808.38;;;13.24;94.19
18813;BME280;9534;51.140;6.296;2023-04-26T14:20:58;100797.75;;;12.65;100.00
18813;BME280;9534;51.140;6.296;2023-04-26T14:25:01;100799.03;;;12.63;100.00
18813;BME280;9534;51.140;6.296;2023-04-26T14:29:06;100805.41;;;12.57;95.83
18813;BME280;9534;51.140;6.296;2023-04-26T14:33:09;100801.13;;;12.17;100.00
18813;BME280;9534;51.140;6.296;2023-04-26T14:37:12;100803.78;;;13.66;98.47
18813;BME280;9534;51.140;6.296;2023-04-26T14:41:16;100795.81;;;13.58;96.66
18813;BME280;9534;51.140;6.296;2023-04-26T14:45:20;100797.75;;;12.22;100.00
18813;BME280;9534;51.140;6.296;2023-04-26T14:49:34;100784.56;;;11.86;100.00
18813;BME280;9534;51.140;6.296;2023-04-26T14:53:37;100787.59;;;12.97;100.00
18813;BME280;9534;51.140;6.296;2023-04-26T14:57:40;100790.19;;;12.54;100.00
18813;BME280;9534;51.140;6.296;2023-04-26T15:01:45;100783.91;;;12.47;100.00
18813;BME280;9534;51.140;6.296;2023-04-26T15:05:48;100782.56;;;13.91;95.94
18813;BME280;9534;51.140;6.296;2023-04-26T15:09:51;100778.28;;;13.53;97.42
18813;BME280;9534;51.140;6.296;2023-04-26T15:13:54;100769.69;;;12.94;100.00
18813;BME280;9534;51.140;6.296;2023-04-26T15:17:58;100782.63;;;15.27;98.60
18813;BME280;9534;51.140;6.296;2023-04-26T15:22:02;100781.50;;;15.16;91.23
18813;BME280;9534;51.140;6.296;2023-04-26T15:26:06;100776.34;;;15.49;79.08
18813;BME280;9534;51.140;6.296;2023-04-26T15:30:09;100781.75;;;14.74;92.73
18813;BME280;9534;51.140;6.296;2023-04-26T15:34:14;100785.47;;;14.50;91.68
18813;BME280;9534;51.140;6.296;2023-04-26T15:38:17;100771.75;;;13.30;98.30
18813;BME280;9534;51.140;6.296;2023-04-26T15:42:20;100772.16;;;15.06;86.83
18813;BME280;9534;51.140;6.296;2023-04-26T15:46:23;100763.91;;;14.11;93.43
18813;BME280;9534;51.140;6.296;2023-04-26T15:50:28;100773.47;;;14.74;92.29
18813;BME280;9534;51.140;6.296;2023-04-26T15:54:31;100762.19;;;15.57;83.64
18813;BME280;9534;51.140;6.296;2023-04-26T15:58:33;100771.19;;;16.49;74.43
18813;BME280;9534;51.140;6.296;2023-04-26T16:02:41;100781.16;;;16.78;71.59
18813;BME280;9534;51.140;6.296;2023-04-26T16:06:47;100776.28;;;17.13;67.29
18813;BME280;9534;51.140;6.296;2023-04-26T16:10:50;100778.47;;;16.05;70.34
18813;BME280;9534;51.140;6.296;2023-04-26T16:14:53;100770.47;;;15.57;78.16
18813;BME280;9534;51.140;6.296;2023-04-26T16:18:56;100773.25;;;14.76;82.20
18813;BME280;9534;51.140;6.296;2023-04-26T16:23:01;100767.31;;;15.54;77.50
18813;BME280;9534;51.140;6.296;2023-04-26T16:27:04;100775.84;;;15.00;75.34
18813;BME280;9534;51.140;6.296;2023-04-26T16:31:07;100755.28;;;14.26;86.19
18813;BME280;9534;51.140;6.296;2023-04-26T16:35:10;100757.25;;;14.66;88.89
18813;BME280;9534;51.140;6.296;2023-04-26T16:39:16;100758.84;;;13.06;98.86
18813;BME280;9534;51.140;6.296;2023-04-26T16:43:20;100756.94;;;13.00;100.00
18813;BME280;9534;51.140;6.296;2023-04-26T16:47:22;100755.34;;;13.41;100.00
18813;BME280;9534;51.140;6.296;2023-04-26T16:51:25;100771.81;;;14.26;97.82
18813;BME280;9534;51.140;6.296;2023-04-26T16:55:30;100771.88;;;14.37;93.20
18813;BME280;9534;51.140;6.296;2023-04-26T16:59:34;100769.09;;;13.83;95.78
18813;BME280;9534;51.140;6.296;2023-04-26T17:03:37;100770.41;;;13.99;96.13
18813;BME280;9534;51.140;6.296;2023-04-26T17:07:40;100768.47;;;12.53;100.00
18813;BME280;9534;51.140;6.296;2023-04-26T17:11:44;100765.97;;;12.45;100.00
18813;BME280;9534;51.140;6.296;2023-04-26T17:15:47;100763.03;;;11.96;100.00
18813;BME280;9534;51.140;6.296;2023-04-26T17:19:50;100767.09;;;12.99;100.00
18813;BME280;9534;51.140;6.296;2023-04-26T17:23:53;100761.88;;;12.91;100.00
18813;BME280;9534;51.140;6.296;2023-04-26T17:27:57;100772.84;;;12.60;100.00
18813;BME280;9534;51.140;6.296;2023-04-26T17:32:00;100756.53;;;11.84;100.00
18813;BME280;9534;51.140;6.296;2023-04-26T17:36:04;100758.91;;;11.22;100.00
18813;BME280;9534;51.140;6.296;2023-04-26T17:40:07;100762.72;;;10.96;100.00
18813;BME280;9534;51.140;6.296;2023-04-26T17:44:12;100776.78;;;10.67;100.00
18813;BME280;9534;51.140;6.296;2023-04-26T17:48:15;100774.41;;;10.51;100.00
18813;BME280;9534;51.140;6.296;2023-04-26T17:52:19;100778.53;;;10.21;100.00
18813;BME280;9534;51.140;6.296;2023-04-26T17:56:22;100781.44;;;10.13;100.00
18813;BME280;9534;51.140;6.296;2023-04-26T18:00:27;100785.78;;;10.01;100.00
18813;BME280;9534;51.140;6.296;2023-04-26T18:04:30;100787.88;;;9.99;100.00
18813;BME280;9534;51.140;6.296;2023-04-26T18:08:34;100780.00;;;9.89;100.00
18813;BME280;9534;51.140;6.296;2023-04-26T18:12:38;100783.78;;;9.82;100.00
18813;BME280;9534;51.140;6.296;2023-04-26T18:16:42;100777.34;;;9.62;100.00
18813;BME280;9534;51.140;6.296;2023-04-26T18:20:45;100789.13;;;9.63;100.00
18813;BME280;9534;51.140;6.296;2023-04-26T18:24:48;100790.56;;;9.59;100.00
18813;BME280;9534;51.140;6.296;2023-04-26T18:28:51;100793.66;;;9.49;100.00
18813;BME280;9534;51.140;6.296;2023-04-26T18:32:56;100795.09;;;9.45;100.00
18813;BME280;9534;51.140;6.296;2023-04-26T18:37:00;100790.84;;;9.36;100.00
18813;BME280;9534;51.140;6.296;2023-04-26T18:41:03;100795.41;;;9.29;100.00
18813;BME280;9534;51.140;6.296;2023-04-26T18:45:06;100800.22;;;9.27;100.00
18813;BME280;9534;51.140;6.296;2023-04-26T18:49:11;100802.94;;;9.27;100.00
18813;BME280;9534;51.140;6.296;2023-04-26T18:53:14;100804.13;;;9.18;100.00
18813;BME280;9534;51.140;6.296;2023-04-26T18:57:18;100802.59;;;9.09;100.00
18813;BME280;9534;51.140;6.296;2023-04-26T19:01:24;100806.34;;;9.08;100.00
18813;BME280;9534;51.140;6.296;2023-04-26T19:05:29;100798.16;;;9.08;100.00
18813;BME280;9534;51.140;6.296;2023-04-26T19:09:32;100812.56;;;8.96;100.00
18813;BME280;9534;51.140;6.296;2023-04-26T19:13:54;100813.13;;;8.91;100.00
18813;BME280;9534;51.140;6.296;2023-04-26T19:17:57;100828.56;;;8.84;100.00
18813;BME280;9534;51.140;6.296;2023-04-26T19:22:01;100839.22;;;8.79;100.00
18813;BME280;9534;51.140;6.296;2023-04-26T19:26:06;100845.53;;;8.80;100.00
18813;BME280;9534;51.140;6.296;2023-04-26T19:30:10;100834.50;;;8.67;100.00
18813;BME280;9534;51.140;6.296;2023-04-26T19:34:13;100844.16;;;8.69;100.00
18813;BME280;9534;51.140;6.296;2023-04-26T19:38:18;100838.69;;;8.69;100.00
18813;BME280;9534;51.140;6.296;2023-04-26T19:42:22;100832.75;;;8.60;100.00
18813;BME280;9534;51.140;6.296;2023-04-26T19:46:25;100839.63;;;8.56;100.00
18813;BME280;9534;51.140;6.296;2023-04-26T19:50:29;100848.56;;;8.50;100.00
18813;BME280;9534;51.140;6.296;2023-04-26T19:54:35;100845.19;;;8.48;100.00
18813;BME280;9534;51.140;6.296;2023-04-26T19:58:38;100848.66;;;8.42;100.00
18813;BME280;9534;51.140;6.296;2023-04-26T20:02:41;100847.25;;;8.31;100.00
18813;BME280;9534;51.140;6.296;2023-04-26T20:06:44;100854.22;;;8.34;100.00
18813;BME280;9534;51.140;6.296;2023-04-26T20:10:49;100856.31;;;8.32;100.00
18813;BME280;9534;51.140;6.296;2023-04-26T20:14:54;100857.41;;;8.23;100.00
18813;BME280;9534;51.140;6.296;2023-04-26T20:18:57;100857.78;;;8.20;100.00
18813;BME280;9534;51.140;6.296;2023-04-26T20:23:01;100855.53;;;8.09;100.00
18813;BME280;9534;51.140;6.296;2023-04-26T20:27:06;100859.28;;;8.08;100.00
18813;BME280;9534;51.140;6.296;2023-04-26T20:31:12;100859.88;;;8.03;100.00
18813;BME280;9534;51.140;6.296;2023-04-26T20:35:15;100858.72;;;7.98;100.00
18813;BME280;9534;51.140;6.296;2023-04-26T20:39:22;100853.75;;;7.87;100.00
18813;BME280;9534;51.140;6.296;2023-04-26T20:43:26;100858.09;;;7.81;100.00
18813;BME280;9534;51.140;6.296;2023-04-26T20:47:31;100858.53;;;7.85;100.00
18813;BME280;9534;51.140;6.296;2023-04-26T20:51:34;100848.88;;;7.82;100.00
18813;BME280;9534;51.140;6.296;2023-04-26T20:55:37;100853.66;;;7.80;100.00
18813;BME280;9534;51.140;6.296;2023-04-26T20:59:42;100856.84;;;7.84;100.00
18813;BME280;9534;51.140;6.296;2023-04-26T21:03:45;100856.19;;;7.82;100.00
18813;BME280;9534;51.140;6.296;2023-04-26T21:07:49;100845.94;;;7.84;100.00
18813;BME280;9534;51.140;6.296;2023-04-26T21:11:52;100852.16;;;7.78;100.00
18813;BME280;9534;51.140;6.296;2023-04-26T21:15:59;100860.06;;;7.73;100.00
18813;BME280;9534;51.140;6.296;2023-04-26T21:20:03;100856.69;;;7.71;100.00
18813;BME280;9534;51.140;6.296;2023-04-26T21:24:06;100857.41;;;7.65;100.00
18813;BME280;9534;51.140;6.296;2023-04-26T21:28:13;100866.25;;;7.67;100.00
18813;BME280;9534;51.140;6.296;2023-04-26T21:32:17;100862.38;;;7.61;100.00